sensor_id;sensor_type;location;lat;lon;timestamp;temperature;humidity
25839;DHT22;13669;50.186;27.062;2022-12-07T00:01:37;-1.30;99.90
25839;DHT22;13669;50.186;27.062;2022-12-07T00:04:08;-1.30;99.90
25839;DHT22;13669;50.186;27.062;2022-12-07T00:06:37;-1.20;99.90
25839;DHT22;13669;50.186;27.062;2022-12-07T00:09:06;-1.20;99.90
25839;DHT22;13669;50.186;27.062;2022-12-07T00:11:34;-1.30;99.90
25839;DHT22;13669;50.186;27.062;2022-12-07T00:14:04;-1.30;99.90
25839;DHT22;13669;50.186;27.062;2022-12-07T00:16:34;-1.30;99.90
25839;DHT22;13669;50.186;27.062;2022-12-07T00:19:03;-1.30;99.90
25839;DHT22;13669;50.186;27.062;2022-12-07T00:21:35;-1.30;99.90
25839;DHT22;13669;50.186;27.062;2022-12-07T00:24:04;-1.30;99.90
25839;DHT22;13669;50.186;27.062;2022-12-07T00:26:35;-1.30;99.90
25839;DHT22;13669;50.186;27.062;2022-12-07T00:29:05;-1.30;99.90
25839;DHT22;13669;50.186;27.062;2022-12-07T00:31:35;-1.20;99.90
25839;DHT22;13669;50.186;27.062;2022-12-07T00:34:09;-1.20;99.90
25839;DHT22;13669;50.186;27.062;2022-12-07T00:36:39;-1.10;99.90
25839;DHT22;13669;50.186;27.062;2022-12-07T00:39:06;-1.10;99.90
25839;DHT22;13669;50.186;27.062;2022-12-07T00:41:34;-1.00;99.90
25839;DHT22;13669;50.186;27.062;2022-12-07T00:44:01;-1.00;99.90
25839;DHT22;13669;50.186;27.062;2022-12-07T00:46:29;-1.00;99.90
25839;DHT22;13669;50.186;27.062;2022-12-07T00:48:57;-1.00;99.90
25839;DHT22;13669;50.186;27.062;2022-12-07T00:51:25;-1.10;99.90
25839;DHT22;13669;50.186;27.062;2022-12-07T00:53:53;-1.10;99.90
25839;DHT22;13669;50.186;27.062;2022-12-07T00:56:23;-1.00;99.90
25839;DHT22;13669;50.186;27.062;2022-12-07T00:58:53;-0.90;99.90
25839;DHT22;13669;50.186;27.062;2022-12-07T01:01:21;-1.00;99.90
25839;DHT22;13669;50.186;27.062;2022-12-07T01:03:49;-1.00;99.90
25839;DHT22;13669;50.186;27.062;2022-12-07T01:06:18;-1.10;99.90
25839;DHT22;13669;50.186;27.062;2022-12-07T01:08:46;-1.10;99.90
25839;DHT22;13669;50.186;27.062;2022-12-07T01:11:15;-1.10;99.90
25839;DHT22;13669;50.186;27.062;2022-12-07T01:13:44;-1.10;99.90
25839;DHT22;13669;50.186;27.062;2022-12-07T01:16:14;-1.00;99.90
25839;DHT22;13669;50.186;27.062;2022-12-07T01:18:45;-1.00;99.90
25839;DHT22;13669;50.186;27.062;2022-12-07T01:21:15;-0.90;99.90
25839;DHT22;13669;50.186;27.062;2022-12-07T01:23:43;-0.80;99.90
25839;DHT22;13669;50.186;27.062;2022-12-07T01:26:14;-0.80;99.90
25839;DHT22;13669;50.186;27.062;2022-12-07T01:28:42;-0.70;99.90
25839;DHT22;13669;50.186;27.062;2022-12-07T01:31:20;-0.70;99.90
25839;DHT22;13669;50.186;27.062;2022-12-07T01:33:54;-0.70;99.90
25839;DHT22;13669;50.186;27.062;2022-12-07T01:36:30;-0.80;99.90
25839;DHT22;13669;50.186;27.062;2022-12-07T01:39:03;-0.80;99.90
25839;DHT22;13669;50.186;27.062;2022-12-07T01:41:33;-0.70;99.90
25839;DHT22;13669;50.186;27.062;2022-12-07T01:44:21;-0.70;99.90
25839;DHT22;13669;50.186;27.062;2022-12-07T01:46:49;-0.70;99.90
25839;DHT22;13669;50.186;27.062;2022-12-07T01:49:42;-0.70;99.90
25839;DHT22;13669;50.186;27.062;2022-12-07T01:54:43;-0.70;99.90
25839;DHT22;13669;50.186;27.062;2022-12-07T01:57:11;-0.60;99.90
25839;DHT22;13669;50.186;27.062;2022-12-07T01:59:40;-0.60;99.90
25839;DHT22;13669;50.186;27.062;2022-12-07T02:02:18;-0.60;99.90
25839;DHT22;13669;50.186;27.062;2022-12-07T02:04:46;-0.50;99.90
25839;DHT22;13669;50.186;27.062;2022-12-07T02:07:13;-0.60;99.90
25839;DHT22;13669;50.186;27.062;2022-12-07T02:09:41;-0.60;99.90
25839;DHT22;13669;50.186;27.062;2022-12-07T02:12:08;-0.60;99.90
25839;DHT22;13669;50.186;27.062;2022-12-07T02:14:36;-0.60;99.90
25839;DHT22;13669;50.186;27.062;2022-12-07T02:17:32;-0.60;99.90
25839;DHT22;13669;50.186;27.062;2022-12-07T02:23:21;-0.50;99.90
25839;DHT22;13669;50.186;27.062;2022-12-07T02:28:33;-0.50;99.90
25839;DHT22;13669;50.186;27.062;2022-12-07T02:31:09;-0.60;99.90
25839;DHT22;13669;50.186;27.062;2022-12-07T02:33:45;-0.50;99.90
25839;DHT22;13669;50.186;27.062;2022-12-07T02:36:21;-0.50;99.90
25839;DHT22;13669;50.186;27.062;2022-12-07T02:38:59;-0.50;99.90
25839;DHT22;13669;50.186;27.062;2022-12-07T02:41:37;-0.50;99.90
25839;DHT22;13669;50.186;27.062;2022-12-07T02:44:10;-0.40;99.90
25839;DHT22;13669;50.186;27.062;2022-12-07T02:46:44;-0.40;99.90
25839;DHT22;13669;50.186;27.062;2022-12-07T02:49:14;-0.40;99.90
25839;DHT22;13669;50.186;27.062;2022-12-07T02:51:43;-0.30;99.90
25839;DHT22;13669;50.186;27.062;2022-12-07T02:54:16;-0.30;99.90
25839;DHT22;13669;50.186;27.062;2022-12-07T03:08:00;-0.30;99.90
25839;DHT22;13669;50.186;27.062;2022-12-07T03:16:21;-0.20;99.90
25839;DHT22;13669;50.186;27.062;2022-12-07T03:19:11;-0.30;99.90
25839;DHT22;13669;50.186;27.062;2022-12-07T03:21:46;-0.30;99.90
25839;DHT22;13669;50.186;27.062;2022-12-07T03:24:21;-0.30;99.90
25839;DHT22;13669;50.186;27.062;2022-12-07T03:26:53;-0.40;99.90
25839;DHT22;13669;50.186;27.062;2022-12-07T03:29:30;-0.40;99.90
25839;DHT22;13669;50.186;27.062;2022-12-07T03:32:15;-0.30;99.90
25839;DHT22;13669;50.186;27.062;2022-12-07T03:34:57;-0.30;99.90
25839;DHT22;13669;50.186;27.062;2022-12-07T03:37:34;-0.40;99.90
25839;DHT22;13669;50.186;27.062;2022-12-07T03:40:17;-0.40;99.90
25839;DHT22;13669;50.186;27.062;2022-12-07T03:42:47;-0.50;99.90
25839;DHT22;13669;50.186;27.062;2022-12-07T03:45:15;-0.50;99.90
25839;DHT22;13669;50.186;27.062;2022-12-07T03:48:22;-0.50;99.90
25839;DHT22;13669;50.186;27.062;2022-12-07T03:53:57;-0.50;99.90
25839;DHT22;13669;50.186;27.062;2022-12-07T03:56:27;-0.50;99.90
25839;DHT22;13669;50.186;27.062;2022-12-07T03:58:56;-0.50;99.90
25839;DHT22;13669;50.186;27.062;2022-12-07T04:01:23;-0.50;99.90
25839;DHT22;13669;50.186;27.062;2022-12-07T04:03:51;-0.50;99.90
25839;DHT22;13669;50.186;27.062;2022-12-07T04:06:19;-0.50;99.90
25839;DHT22;13669;50.186;27.062;2022-12-07T04:08:46;-0.60;99.90
25839;DHT22;13669;50.186;27.062;2022-12-07T04:11:13;-0.60;99.90
25839;DHT22;13669;50.186;27.062;2022-12-07T04:13:41;-0.60;99.90
25839;DHT22;13669;50.186;27.062;2022-12-07T04:16:27;-0.60;99.90
25839;DHT22;13669;50.186;27.062;2022-12-07T04:18:54;-0.60;99.90
25839;DHT22;13669;50.186;27.062;2022-12-07T04:21:22;-0.60;99.90
25839;DHT22;13669;50.186;27.062;2022-12-07T04:23:49;-0.60;99.90
25839;DHT22;13669;50.186;27.062;2022-12-07T04:26:17;-0.50;99.90
25839;DHT22;13669;50.186;27.062;2022-12-07T04:28:44;-0.50;99.90
25839;DHT22;13669;50.186;27.062;2022-12-07T04:31:12;-0.50;99.90
25839;DHT22;13669;50.186;27.062;2022-12-07T04:33:39;-0.50;99.90
25839;DHT22;13669;50.186;27.062;2022-12-07T04:36:07;-0.60;99.90
25839;DHT22;13669;50.186;27.062;2022-12-07T04:38:34;-0.50;99.90
25839;DHT22;13669;50.186;27.062;2022-12-07T04:41:06;-0.50;99.90
25839;DHT22;13669;50.186;27.062;2022-12-07T04:43:34;-0.50;99.90
25839;DHT22;13669;50.186;27.062;2022-12-07T04:46:02;-0.50;99.90
25839;DHT22;13669;50.186;27.062;2022-12-07T04:48:30;-0.60;99.90
25839;DHT22;13669;50.186;27.062;2022-12-07T04:50:57;-0.50;99.90
25839;DHT22;13669;50.186;27.062;2022-12-07T04:53:25;-0.50;99.90
25839;DHT22;13669;50.186;27.062;2022-12-07T04:55:52;-0.50;99.90
25839;DHT22;13669;50.186;27.062;2022-12-07T04:58:19;-0.50;99.90
25839;DHT22;13669;50.186;27.062;2022-12-07T05:00:47;-0.60;99.90
25839;DHT22;13669;50.186;27.062;2022-12-07T05:03:14;-0.60;99.90
25839;DHT22;13669;50.186;27.062;2022-12-07T05:05:42;-0.60;99.90
25839;DHT22;13669;50.186;27.062;2022-12-07T05:08:09;-0.50;99.90
25839;DHT22;13669;50.186;27.062;2022-12-07T05:10:37;-0.60;99.90
25839;DHT22;13669;50.186;27.062;2022-12-07T05:13:04;-0.60;99.90
25839;DHT22;13669;50.186;27.062;2022-12-07T05:15:31;-0.50;99.90
25839;DHT22;13669;50.186;27.062;2022-12-07T05:17:59;-0.60;99.90
25839;DHT22;13669;50.186;27.062;2022-12-07T05:20:26;-0.60;99.90
25839;DHT22;13669;50.186;27.062;2022-12-07T05:22:54;-0.60;99.90
25839;DHT22;13669;50.186;27.062;2022-12-07T05:25:21;-0.60;99.90
25839;DHT22;13669;50.186;27.062;2022-12-07T05:27:49;-0.50;99.90
25839;DHT22;13669;50.186;27.062;2022-12-07T05:30:16;-0.50;99.90
25839;DHT22;13669;50.186;27.062;2022-12-07T05:32:44;-0.50;99.90
25839;DHT22;13669;50.186;27.062;2022-12-07T05:35:11;-0.50;99.90
25839;DHT22;13669;50.186;27.062;2022-12-07T05:37:38;-0.50;99.90
25839;DHT22;13669;50.186;27.062;2022-12-07T05:40:06;-0.50;99.90
25839;DHT22;13669;50.186;27.062;2022-12-07T05:42:34;-0.50;99.90
25839;DHT22;13669;50.186;27.062;2022-12-07T05:45:01;-0.50;99.90
25839;DHT22;13669;50.186;27.062;2022-12-07T05:47:29;-0.50;99.90
25839;DHT22;13669;50.186;27.062;2022-12-07T05:49:56;-0.50;99.90
25839;DHT22;13669;50.186;27.062;2022-12-07T05:52:24;-0.40;99.90
25839;DHT22;13669;50.186;27.062;2022-12-07T05:54:52;-0.30;99.90
25839;DHT22;13669;50.186;27.062;2022-12-07T05:57:19;-0.30;99.90
25839;DHT22;13669;50.186;27.062;2022-12-07T05:59:47;-0.30;99.90
25839;DHT22;13669;50.186;27.062;2022-12-07T06:02:15;-0.30;99.90
25839;DHT22;13669;50.186;27.062;2022-12-07T06:04:45;-0.40;99.90
25839;DHT22;13669;50.186;27.062;2022-12-07T06:07:15;-0.30;99.90
25839;DHT22;13669;50.186;27.062;2022-12-07T06:09:43;-0.30;99.90
25839;DHT22;13669;50.186;27.062;2022-12-07T06:12:11;-0.30;99.90
25839;DHT22;13669;50.186;27.062;2022-12-07T06:14:58;-0.20;99.90
25839;DHT22;13669;50.186;27.062;2022-12-07T06:17:25;-0.20;99.90
25839;DHT22;13669;50.186;27.062;2022-12-07T06:19:53;-0.30;99.90
25839;DHT22;13669;50.186;27.062;2022-12-07T06:22:20;-0.30;99.90
25839;DHT22;13669;50.186;27.062;2022-12-07T06:24:48;-0.30;99.90
25839;DHT22;13669;50.186;27.062;2022-12-07T06:27:15;-0.30;99.90
25839;DHT22;13669;50.186;27.062;2022-12-07T06:29:43;-0.20;99.90
25839;DHT22;13669;50.186;27.062;2022-12-07T06:32:10;-0.30;99.90
25839;DHT22;13669;50.186;27.062;2022-12-07T06:34:39;-0.30;99.90
25839;DHT22;13669;50.186;27.062;2022-12-07T06:37:06;-0.20;99.90
25839;DHT22;13669;50.186;27.062;2022-12-07T06:39:34;-0.20;99.90
25839;DHT22;13669;50.186;27.062;2022-12-07T06:42:01;-0.20;99.90
25839;DHT22;13669;50.186;27.062;2022-12-07T06:44:29;-0.30;99.90
25839;DHT22;13669;50.186;27.062;2022-12-07T06:46:56;-0.20;99.90
25839;DHT22;13669;50.186;27.062;2022-12-07T06:49:44;-0.20;99.90
25839;DHT22;13669;50.186;27.062;2022-12-07T06:52:11;-0.20;99.90
25839;DHT22;13669;50.186;27.062;2022-12-07T06:54:39;-0.20;99.90
25839;DHT22;13669;50.186;27.062;2022-12-07T06:57:06;-0.10;99.90
25839;DHT22;13669;50.186;27.062;2022-12-07T06:59:34;0.00;99.90
25839;DHT22;13669;50.186;27.062;2022-12-07T07:02:01;0.00;99.90
25839;DHT22;13669;50.186;27.062;2022-12-07T07:04:28;-0.10;99.90
25839;DHT22;13669;50.186;27.062;2022-12-07T07:06:56;0.00;99.90
25839;DHT22;13669;50.186;27.062;2022-12-07T07:09:26;0.00;99.90
25839;DHT22;13669;50.186;27.062;2022-12-07T07:11:54;0.00;99.90
25839;DHT22;13669;50.186;27.062;2022-12-07T07:14:22;0.10;99.90
25839;DHT22;13669;50.186;27.062;2022-12-07T07:16:49;0.10;99.90
25839;DHT22;13669;50.186;27.062;2022-12-07T07:19:17;0.10;99.90
25839;DHT22;13669;50.186;27.062;2022-12-07T07:21:44;0.10;99.90
25839;DHT22;13669;50.186;27.062;2022-12-07T07:24:12;0.10;99.90
25839;DHT22;13669;50.186;27.062;2022-12-07T07:26:39;0.10;99.90
25839;DHT22;13669;50.186;27.062;2022-12-07T07:29:07;0.10;99.90
25839;DHT22;13669;50.186;27.062;2022-12-07T07:31:34;0.10;99.90
25839;DHT22;13669;50.186;27.062;2022-12-07T07:34:02;0.10;99.90
25839;DHT22;13669;50.186;27.062;2022-12-07T07:36:30;0.20;99.90
25839;DHT22;13669;50.186;27.062;2022-12-07T07:38:57;0.20;99.90
25839;DHT22;13669;50.186;27.062;2022-12-07T07:41:25;0.20;99.90
25839;DHT22;13669;50.186;27.062;2022-12-07T07:43:52;0.40;99.90
25839;DHT22;13669;50.186;27.062;2022-12-07T07:46:19;0.40;99.90
25839;DHT22;13669;50.186;27.062;2022-12-07T07:48:47;0.40;99.90
25839;DHT22;13669;50.186;27.062;2022-12-07T07:51:15;0.30;99.90
25839;DHT22;13669;50.186;27.062;2022-12-07T07:53:42;0.30;99.90
25839;DHT22;13669;50.186;27.062;2022-12-07T07:56:09;0.30;99.90
25839;DHT22;13669;50.186;27.062;2022-12-07T07:58:37;0.30;99.90
25839;DHT22;13669;50.186;27.062;2022-12-07T08:01:07;0.20;99.90
25839;DHT22;13669;50.186;27.062;2022-12-07T08:03:35;0.30;99.90
25839;DHT22;13669;50.186;27.062;2022-12-07T08:06:03;0.30;99.90
25839;DHT22;13669;50.186;27.062;2022-12-07T08:08:31;0.30;99.90
25839;DHT22;13669;50.186;27.062;2022-12-07T08:10:59;0.40;99.90
25839;DHT22;13669;50.186;27.062;2022-12-07T08:13:29;0.30;99.90
25839;DHT22;13669;50.186;27.062;2022-12-07T08:15:58;0.40;99.90
25839;DHT22;13669;50.186;27.062;2022-12-07T08:18:26;0.40;99.90
25839;DHT22;13669;50.186;27.062;2022-12-07T08:20:59;0.50;99.90
25839;DHT22;13669;50.186;27.062;2022-12-07T08:23:28;0.50;99.90
25839;DHT22;13669;50.186;27.062;2022-12-07T08:26:08;0.50;99.90
25839;DHT22;13669;50.186;27.062;2022-12-07T08:28:36;0.60;99.90
25839;DHT22;13669;50.186;27.062;2022-12-07T08:31:10;0.60;99.90
25839;DHT22;13669;50.186;27.062;2022-12-07T08:33:39;0.70;99.90
25839;DHT22;13669;50.186;27.062;2022-12-07T08:36:09;0.70;99.90
25839;DHT22;13669;50.186;27.062;2022-12-07T08:38:37;0.70;99.90
25839;DHT22;13669;50.186;27.062;2022-12-07T08:41:06;0.70;99.90
25839;DHT22;13669;50.186;27.062;2022-12-07T08:43:35;0.70;99.90
25839;DHT22;13669;50.186;27.062;2022-12-07T08:46:19;0.70;99.90
25839;DHT22;13669;50.186;27.062;2022-12-07T08:48:54;0.70;99.90
25839;DHT22;13669;50.186;27.062;2022-12-07T08:51:23;0.70;99.90
25839;DHT22;13669;50.186;27.062;2022-12-07T08:53:52;0.70;99.90
25839;DHT22;13669;50.186;27.062;2022-12-07T08:56:19;0.90;99.90
25839;DHT22;13669;50.186;27.062;2022-12-07T08:58:47;0.90;99.90
25839;DHT22;13669;50.186;27.062;2022-12-07T09:01:15;1.00;99.90
25839;DHT22;13669;50.186;27.062;2022-12-07T09:03:42;1.00;99.90
25839;DHT22;13669;50.186;27.062;2022-12-07T09:06:10;1.00;99.90
25839;DHT22;13669;50.186;27.062;2022-12-07T09:08:41;0.90;99.90
25839;DHT22;13669;50.186;27.062;2022-12-07T09:11:09;1.00;99.90
25839;DHT22;13669;50.186;27.062;2022-12-07T09:13:37;1.00;99.90
25839;DHT22;13669;50.186;27.062;2022-12-07T09:16:04;1.00;99.90
25839;DHT22;13669;50.186;27.062;2022-12-07T09:18:32;1.00;99.90
25839;DHT22;13669;50.186;27.062;2022-12-07T09:21:00;1.20;99.90
25839;DHT22;13669;50.186;27.062;2022-12-07T09:23:27;1.40;99.90
25839;DHT22;13669;50.186;27.062;2022-12-07T09:25:58;1.40;99.90
25839;DHT22;13669;50.186;27.062;2022-12-07T09:28:25;1.50;99.90
25839;DHT22;13669;50.186;27.062;2022-12-07T09:30:53;1.50;99.90
25839;DHT22;13669;50.186;27.062;2022-12-07T09:33:40;1.50;99.90
25839;DHT22;13669;50.186;27.062;2022-12-07T09:36:08;1.70;99.90
25839;DHT22;13669;50.186;27.062;2022-12-07T09:38:37;1.60;99.90
25839;DHT22;13669;50.186;27.062;2022-12-07T09:41:06;1.50;99.90
25839;DHT22;13669;50.186;27.062;2022-12-07T09:43:36;1.60;99.90
25839;DHT22;13669;50.186;27.062;2022-12-07T09:46:04;1.40;99.90
25839;DHT22;13669;50.186;27.062;2022-12-07T09:48:37;1.30;99.90
25839;DHT22;13669;50.186;27.062;2022-12-07T09:53:52;1.40;99.90
25839;DHT22;13669;50.186;27.062;2022-12-07T09:56:22;1.50;99.90
25839;DHT22;13669;50.186;27.062;2022-12-07T09:58:51;1.40;99.90
25839;DHT22;13669;50.186;27.062;2022-12-07T10:01:21;1.40;99.90
25839;DHT22;13669;50.186;27.062;2022-12-07T10:03:55;1.50;99.90
25839;DHT22;13669;50.186;27.062;2022-12-07T10:06:26;1.60;99.90
25839;DHT22;13669;50.186;27.062;2022-12-07T10:08:53;1.40;99.90
25839;DHT22;13669;50.186;27.062;2022-12-07T10:11:20;1.30;99.90
25839;DHT22;13669;50.186;27.062;2022-12-07T10:13:51;1.30;99.90
25839;DHT22;13669;50.186;27.062;2022-12-07T10:18:54;1.50;99.90
25839;DHT22;13669;50.186;27.062;2022-12-07T10:21:24;1.60;99.90
25839;DHT22;13669;50.186;27.062;2022-12-07T10:26:50;1.40;99.90
25839;DHT22;13669;50.186;27.062;2022-12-07T10:29:22;1.50;99.90
25839;DHT22;13669;50.186;27.062;2022-12-07T10:32:21;1.50;99.90
25839;DHT22;13669;50.186;27.062;2022-12-07T10:37:48;1.30;99.90
25839;DHT22;13669;50.186;27.062;2022-12-07T10:43:17;1.20;99.90
25839;DHT22;13669;50.186;27.062;2022-12-07T10:52:00;1.60;99.90
25839;DHT22;13669;50.186;27.062;2022-12-07T11:00:36;1.40;99.90
25839;DHT22;13669;50.186;27.062;2022-12-07T11:03:09;1.10;99.90
25839;DHT22;13669;50.186;27.062;2022-12-07T11:11:09;1.10;99.90
25839;DHT22;13669;50.186;27.062;2022-12-07T11:14:05;1.10;99.90
25839;DHT22;13669;50.186;27.062;2022-12-07T11:30:42;1.20;99.90
25839;DHT22;13669;50.186;27.062;2022-12-07T11:33:33;1.20;99.90
25839;DHT22;13669;50.186;27.062;2022-12-07T11:36:37;1.30;99.90
25839;DHT22;13669;50.186;27.062;2022-12-07T11:39:33;1.30;99.90
25839;DHT22;13669;50.186;27.062;2022-12-07T11:42:06;1.40;99.90
25839;DHT22;13669;50.186;27.062;2022-12-07T11:44:56;1.60;99.90
25839;DHT22;13669;50.186;27.062;2022-12-07T11:47:35;1.60;99.90
25839;DHT22;13669;50.186;27.062;2022-12-07T11:58:49;1.80;99.90
25839;DHT22;13669;50.186;27.062;2022-12-07T12:06:39;1.70;99.90
25839;DHT22;13669;50.186;27.062;2022-12-07T12:20:41;1.20;99.90
25839;DHT22;13669;50.186;27.062;2022-12-07T12:23:21;1.20;99.90
25839;DHT22;13669;50.186;27.062;2022-12-07T12:25:57;1.20;99.90
25839;DHT22;13669;50.186;27.062;2022-12-07T12:28:38;1.20;99.90
25839;DHT22;13669;50.186;27.062;2022-12-07T12:31:15;1.20;99.90
25839;DHT22;13669;50.186;27.062;2022-12-07T12:33:52;1.20;99.90
25839;DHT22;13669;50.186;27.062;2022-12-07T12:47:01;1.60;99.90
25839;DHT22;13669;50.186;27.062;2022-12-07T12:52:01;1.70;99.90
25839;DHT22;13669;50.186;27.062;2022-12-07T12:55:01;1.80;99.90
25839;DHT22;13669;50.186;27.062;2022-12-07T12:57:34;1.80;99.90
25839;DHT22;13669;50.186;27.062;2022-12-07T13:00:19;1.90;99.90
25839;DHT22;13669;50.186;27.062;2022-12-07T13:02:56;2.00;99.90
25839;DHT22;13669;50.186;27.062;2022-12-07T13:05:30;1.90;99.90
25839;DHT22;13669;50.186;27.062;2022-12-07T13:08:02;1.80;99.90
25839;DHT22;13669;50.186;27.062;2022-12-07T13:10:36;1.60;99.90
25839;DHT22;13669;50.186;27.062;2022-12-07T13:15:49;1.60;99.90
25839;DHT22;13669;50.186;27.062;2022-12-07T13:23:36;1.60;99.90
25839;DHT22;13669;50.186;27.062;2022-12-07T13:26:42;1.60;99.90
25839;DHT22;13669;50.186;27.062;2022-12-07T13:31:41;1.60;99.90
25839;DHT22;13669;50.186;27.062;2022-12-07T13:34:35;1.60;99.90
25839;DHT22;13669;50.186;27.062;2022-12-07T13:37:14;1.60;99.90
25839;DHT22;13669;50.186;27.062;2022-12-07T13:39:51;1.50;99.90
25839;DHT22;13669;50.186;27.062;2022-12-07T13:42:26;1.50;99.90
25839;DHT22;13669;50.186;27.062;2022-12-07T13:44:55;1.40;99.90
25839;DHT22;13669;50.186;27.062;2022-12-07T13:47:34;1.40;99.90
25839;DHT22;13669;50.186;27.062;2022-12-07T13:50:21;1.40;99.90
25839;DHT22;13669;50.186;27.062;2022-12-07T13:52:49;1.40;99.90
25839;DHT22;13669;50.186;27.062;2022-12-07T13:55:17;1.40;99.90
25839;DHT22;13669;50.186;27.062;2022-12-07T13:57:48;1.40;99.90
25839;DHT22;13669;50.186;27.062;2022-12-07T14:00:25;1.30;99.90
25839;DHT22;13669;50.186;27.062;2022-12-07T14:05:28;1.40;99.90
25839;DHT22;13669;50.186;27.062;2022-12-07T14:10:30;1.30;99.90
25839;DHT22;13669;50.186;27.062;2022-12-07T14:15:57;1.30;99.90
25839;DHT22;13669;50.186;27.062;2022-12-07T14:18:28;1.40;99.90
25839;DHT22;13669;50.186;27.062;2022-12-07T14:21:13;1.40;99.90
25839;DHT22;13669;50.186;27.062;2022-12-07T14:23:41;1.40;99.90
25839;DHT22;13669;50.186;27.062;2022-12-07T14:26:14;1.30;99.90
25839;DHT22;13669;50.186;27.062;2022-12-07T14:28:43;1.40;99.90
25839;DHT22;13669;50.186;27.062;2022-12-07T14:31:16;1.40;99.90
25839;DHT22;13669;50.186;27.062;2022-12-07T14:33:52;1.50;99.90
25839;DHT22;13669;50.186;27.062;2022-12-07T14:36:20;1.50;99.90
25839;DHT22;13669;50.186;27.062;2022-12-07T14:38:47;1.50;99.90
25839;DHT22;13669;50.186;27.062;2022-12-07T14:41:19;1.60;99.90
25839;DHT22;13669;50.186;27.062;2022-12-07T14:44:11;1.60;99.90
25839;DHT22;13669;50.186;27.062;2022-12-07T14:46:59;1.50;99.90
25839;DHT22;13669;50.186;27.062;2022-12-07T14:49:47;1.70;99.90
25839;DHT22;13669;50.186;27.062;2022-12-07T14:52:21;1.70;99.90
25839;DHT22;13669;50.186;27.062;2022-12-07T14:57:49;1.70;99.90
25839;DHT22;13669;50.186;27.062;2022-12-07T15:00:18;1.70;99.90
25839;DHT22;13669;50.186;27.062;2022-12-07T15:02:46;1.70;99.90
25839;DHT22;13669;50.186;27.062;2022-12-07T15:05:14;1.70;99.90
25839;DHT22;13669;50.186;27.062;2022-12-07T15:07:44;1.70;99.90
25839;DHT22;13669;50.186;27.062;2022-12-07T15:10:19;1.50;99.90
25839;DHT22;13669;50.186;27.062;2022-12-07T15:12:51;1.40;99.90
25839;DHT22;13669;50.186;27.062;2022-12-07T15:15:18;1.40;99.90
25839;DHT22;13669;50.186;27.062;2022-12-07T15:17:46;1.40;99.90
25839;DHT22;13669;50.186;27.062;2022-12-07T15:20:15;1.40;99.90
25839;DHT22;13669;50.186;27.062;2022-12-07T15:22:44;1.40;99.90
25839;DHT22;13669;50.186;27.062;2022-12-07T15:25:14;1.40;99.90
25839;DHT22;13669;50.186;27.062;2022-12-07T15:27:42;1.40;99.90
25839;DHT22;13669;50.186;27.062;2022-12-07T15:30:10;1.40;99.90
25839;DHT22;13669;50.186;27.062;2022-12-07T15:32:37;1.30;99.90
25839;DHT22;13669;50.186;27.062;2022-12-07T15:35:05;1.30;99.90
25839;DHT22;13669;50.186;27.062;2022-12-07T15:37:33;1.30;99.90
25839;DHT22;13669;50.186;27.062;2022-12-07T15:40:00;1.30;99.90
25839;DHT22;13669;50.186;27.062;2022-12-07T15:42:35;1.30;99.90
25839;DHT22;13669;50.186;27.062;2022-12-07T15:45:04;1.30;99.90
25839;DHT22;13669;50.186;27.062;2022-12-07T15:47:38;1.20;99.90
25839;DHT22;13669;50.186;27.062;2022-12-07T15:50:26;1.20;99.90
25839;DHT22;13669;50.186;27.062;2022-12-07T15:52:54;1.20;99.90
25839;DHT22;13669;50.186;27.062;2022-12-07T15:55:21;1.20;99.90
25839;DHT22;13669;50.186;27.062;2022-12-07T15:57:48;1.10;99.90
25839;DHT22;13669;50.186;27.062;2022-12-07T16:00:17;1.20;99.90
25839;DHT22;13669;50.186;27.062;2022-12-07T16:02:44;1.20;99.90
25839;DHT22;13669;50.186;27.062;2022-12-07T16:05:12;1.20;99.90
25839;DHT22;13669;50.186;27.062;2022-12-07T16:07:39;1.20;99.90
25839;DHT22;13669;50.186;27.062;2022-12-07T16:10:07;1.30;99.90
25839;DHT22;13669;50.186;27.062;2022-12-07T16:12:35;1.30;99.90
25839;DHT22;13669;50.186;27.062;2022-12-07T16:15:02;1.40;99.90
25839;DHT22;13669;50.186;27.062;2022-12-07T16:17:30;1.40;99.90
25839;DHT22;13669;50.186;27.062;2022-12-07T16:19:58;1.40;99.90
25839;DHT22;13669;50.186;27.062;2022-12-07T16:22:25;1.40;99.90
25839;DHT22;13669;50.186;27.062;2022-12-07T16:24:53;1.40;99.90
25839;DHT22;13669;50.186;27.062;2022-12-07T16:27:20;1.40;99.90
25839;DHT22;13669;50.186;27.062;2022-12-07T16:29:48;1.40;99.90
25839;DHT22;13669;50.186;27.062;2022-12-07T16:32:15;1.40;99.90
25839;DHT22;13669;50.186;27.062;2022-12-07T16:34:43;1.40;99.90
25839;DHT22;13669;50.186;27.062;2022-12-07T16:37:10;1.40;99.90
25839;DHT22;13669;50.186;27.062;2022-12-07T16:39:38;1.40;99.90
25839;DHT22;13669;50.186;27.062;2022-12-07T16:42:05;1.40;99.90
25839;DHT22;13669;50.186;27.062;2022-12-07T16:44:33;1.40;99.90
25839;DHT22;13669;50.186;27.062;2022-12-07T16:47:01;1.40;99.90
25839;DHT22;13669;50.186;27.062;2022-12-07T16:49:29;1.30;99.90
25839;DHT22;13669;50.186;27.062;2022-12-07T16:51:56;1.30;99.90
25839;DHT22;13669;50.186;27.062;2022-12-07T16:54:44;1.30;99.90
25839;DHT22;13669;50.186;27.062;2022-12-07T16:57:11;1.30;99.90
25839;DHT22;13669;50.186;27.062;2022-12-07T16:59:48;1.30;99.90
25839;DHT22;13669;50.186;27.062;2022-12-07T17:02:15;1.30;99.90
25839;DHT22;13669;50.186;27.062;2022-12-07T17:04:43;1.30;99.90
25839;DHT22;13669;50.186;27.062;2022-12-07T17:07:10;1.30;99.90
25839;DHT22;13669;50.186;27.062;2022-12-07T17:09:38;1.30;99.90
25839;DHT22;13669;50.186;27.062;2022-12-07T17:12:05;1.30;99.90
25839;DHT22;13669;50.186;27.062;2022-12-07T17:14:34;1.30;99.90
25839;DHT22;13669;50.186;27.062;2022-12-07T17:17:21;1.30;99.90
25839;DHT22;13669;50.186;27.062;2022-12-07T17:19:48;1.40;99.90
25839;DHT22;13669;50.186;27.062;2022-12-07T17:22:16;1.40;99.90
25839;DHT22;13669;50.186;27.062;2022-12-07T17:24:43;1.30;99.90
25839;DHT22;13669;50.186;27.062;2022-12-07T17:27:13;1.40;99.90
25839;DHT22;13669;50.186;27.062;2022-12-07T17:29:44;1.40;99.90
25839;DHT22;13669;50.186;27.062;2022-12-07T17:32:11;1.40;99.90
25839;DHT22;13669;50.186;27.062;2022-12-07T17:34:39;1.40;99.90
25839;DHT22;13669;50.186;27.062;2022-12-07T17:37:06;1.40;99.90
25839;DHT22;13669;50.186;27.062;2022-12-07T17:39:34;1.40;99.90
25839;DHT22;13669;50.186;27.062;2022-12-07T17:42:01;1.50;99.90
25839;DHT22;13669;50.186;27.062;2022-12-07T17:44:47;1.50;99.90
25839;DHT22;13669;50.186;27.062;2022-12-07T17:47:15;1.50;99.90
25839;DHT22;13669;50.186;27.062;2022-12-07T17:49:44;1.50;99.90
25839;DHT22;13669;50.186;27.062;2022-12-07T17:52:13;1.60;99.90
25839;DHT22;13669;50.186;27.062;2022-12-07T17:54:59;1.50;99.90
25839;DHT22;13669;50.186;27.062;2022-12-07T17:57:27;1.50;99.90
25839;DHT22;13669;50.186;27.062;2022-12-07T17:59:55;1.50;99.90
25839;DHT22;13669;50.186;27.062;2022-12-07T18:02:22;1.50;99.90
25839;DHT22;13669;50.186;27.062;2022-12-07T18:04:49;1.50;99.90